Time;durP1;ratioP1;P1;durP2;ratioP2;P2;SDS_P1;SDS_P2;PMS_P1;PMS_P2;Temp;Humidity;BMP_temperature;BMP_pressure;BME280_temperature;BME280_humidity;BME280_pressure;Samples;Min_cycle;Max_cycle;Signal;HPM_P1;HPM_P2
2023/07/26 00:01:36;;;;;;;6.27;1.70;;;;;;;14.41;87.83;155011.84;4914294;29;20141;-73
2023/07/26 00:04:02;;;;;;;4.57;1.70;;;;;;;14.28;88.27;154978.06;4912846;29;20361;-73
2023/07/26 00:06:31;;;;;;;2.53;1.50;;;;;;;14.23;88.91;154965.06;4898116;29;20040;-73
2023/07/26 00:08:56;;;;;;;4.28;1.80;;;;;;;14.16;88.78;154946.84;4913922;29;20779;-74
2023/07/26 00:11:22;;;;;;;5.60;1.70;;;;;;;14.10;88.71;154931.28;4897690;29;20047;-73
2023/07/26 00:13:48;;;;;;;5.73;1.73;;;;;;;14.00;89.66;154905.31;4912119;29;20469;-73
2023/07/26 00:16:14;;;;;;;5.00;1.70;;;;;;;13.96;90.18;154894.91;4914685;29;20071;-73
2023/07/26 00:18:40;;;;;;;5.13;2.03;;;;;;;13.86;90.20;154868.97;4915004;29;20064;-73
2023/07/26 00:21:08;;;;;;;2.45;1.70;;;;;;;13.79;90.54;154852.13;4914884;29;20039;-72
2023/07/26 00:23:33;;;;;;;4.68;1.92;;;;;;;13.77;90.80;154845.63;4913525;29;20091;-72
2023/07/26 00:25:58;;;;;;;4.30;1.80;;;;;;;13.75;91.35;154841.72;4897679;29;20505;-72
2023/07/26 00:28:24;;;;;;;2.83;1.77;;;;;;;13.77;92.95;154846.91;4913912;29;20047;-72
2023/07/26 00:30:49;;;;;;;4.43;1.70;;;;;;;13.67;92.74;154819.66;4914020;29;20044;-72
2023/07/26 00:33:15;;;;;;;4.40;1.73;;;;;;;13.62;94.22;154807.97;4916188;29;20392;-73
2023/07/26 00:35:42;;;;;;;5.67;2.00;;;;;;;13.53;95.24;154783.31;4892348;29;20035;-72
2023/07/26 00:38:08;;;;;;;3.70;1.80;;;;;;;13.51;95.69;154778.16;4916717;29;20056;-73
2023/07/26 00:40:37;;;;;;;;;;;;;;;13.47;96.74;154767.75;4918062;29;20043;-73
2023/07/26 00:43:05;;;;;;;2.00;1.67;;;;;;;13.38;97.68;154744.38;4916696;29;19986;-73
2023/07/26 00:45:33;;;;;;;4.97;1.90;;;;;;;13.40;98.12;154750.88;4916022;29;20032;-73
2023/07/26 00:47:59;;;;;;;2.97;2.03;;;;;;;13.33;98.11;154731.41;4918100;29;20036;-72
2023/07/26 00:50:25;;;;;;;2.93;1.77;;;;;;;13.32;98.54;154728.81;4900090;29;20428;-72
2023/07/26 00:52:51;;;;;;;5.28;1.80;;;;;;;13.27;98.92;154715.84;4892063;29;20032;-73
2023/07/26 00:55:17;;;;;;;4.00;1.98;;;;;;;13.26;99.44;154714.56;4897518;29;20044;-72
2023/07/26 00:57:45;;;;;;;3.93;2.00;;;;;;;13.20;99.72;154697.69;4900140;29;20524;-72
2023/07/26 01:00:15;;;;;;;3.50;1.75;;;;;;;13.15;99.78;154684.72;4916387;29;20028;-71
2023/07/26 01:02:40;;;;;;;3.83;2.30;;;;;;;13.16;100.00;154688.63;4917491;29;20036;-73
2023/07/26 01:05:07;;;;;;;5.93;2.43;;;;;;;13.16;100.00;154688.63;4897998;29;20032;-72
2023/07/26 01:07:57;;;;;;;3.45;1.88;;;;;;;13.17;100.00;154689.88;4917968;29;20039;-72
2023/07/26 01:10:37;;;;;;;5.80;2.15;;;;;;;13.16;100.00;154687.31;4917392;29;20504;-73
2023/07/26 01:13:44;;;;;;;5.80;2.00;;;;;;;13.00;100.00;154647.13;4915757;29;20099;-72
2023/07/26 01:16:09;;;;;;;5.22;2.30;;;;;;;13.06;100.00;154662.69;4879809;29;20040;-72
2023/07/26 01:18:36;;;;;;;6.33;2.10;;;;;;;13.03;100.00;154653.59;4916101;29;20031;-73
2023/07/26 01:21:02;;;;;;;4.65;2.05;;;;;;;12.95;100.00;154632.78;4900720;29;20393;-73
2023/07/26 01:23:27;;;;;;;4.83;1.90;;;;;;;12.92;100.00;154626.28;4899450;29;20032;-73
2023/07/26 01:25:53;;;;;;;2.77;1.80;;;;;;;12.92;100.00;154626.28;4900498;29;20119;-73
2023/07/26 01:28:18;;;;;;;4.00;2.03;;;;;;;12.92;100.00;154625.03;4916288;29;20058;-73
2023/07/26 01:30:45;;;;;;;2.20;2.00;;;;;;;12.86;100.00;154610.75;4914508;29;20500;-73
2023/07/26 01:33:12;;;;;;;9.13;2.20;;;;;;;12.87;100.00;154612.06;4916979;29;20532;-72
2023/07/26 01:35:38;;;;;;;7.20;2.15;;;;;;;12.80;100.00;154595.19;4916211;29;20119;-73
2023/07/26 01:38:05;;;;;;;3.95;2.00;;;;;;;12.75;100.00;154580.94;4896287;29;20035;-73
2023/07/26 01:40:31;;;;;;;3.58;2.10;;;;;;;12.72;100.00;154574.47;4917137;29;20071;-73
2023/07/26 01:42:57;;;;;;;7.22;2.50;;;;;;;12.73;100.00;154575.72;4915444;29;20032;-73
2023/07/26 01:45:23;;;;;;;7.40;1.93;;;;;;;12.71;100.00;154570.56;4913424;29;20035;-73
2023/07/26 01:47:51;;;;;;;6.10;2.13;;;;;;;12.72;100.00;154573.13;4916483;29;20393;-73
2023/07/26 01:50:16;;;;;;;4.15;2.40;;;;;;;12.68;100.00;154562.75;4915131;29;20032;-72
2023/07/26 01:52:42;;;;;;;9.97;2.07;;;;;;;12.64;100.00;154553.69;4920290;29;20837;-72
2023/07/26 01:55:07;;;;;;;4.43;2.23;;;;;;;12.69;100.00;154566.66;4899185;29;20481;-72
2023/07/26 01:57:33;;;;;;;4.03;2.20;;;;;;;12.64;100.00;154552.41;4916842;29;20043;-72
2023/07/26 01:59:59;;;;;;;4.77;2.70;;;;;;;12.60;100.00;154542.03;4915180;29;20027;-72
2023/07/26 02:02:25;;;;;;;6.13;2.13;;;;;;;12.61;100.00;154544.63;4915534;29;20437;-72
2023/07/26 02:04:50;;;;;;;2.93;2.10;;;;;;;12.53;100.00;154523.84;4903410;29;20036;-72
2023/07/26 02:07:15;;;;;;;3.13;2.37;;;;;;;12.51;100.00;154520.00;4917202;29;20108;-72
2023/07/26 02:09:43;;;;;;;3.90;2.25;;;;;;;12.50;100.00;154517.38;4914996;29;20624;-72
2023/07/26 02:12:08;;;;;;;;;;;;;;;12.45;100.00;154503.13;4902383;29;20044;-72
2023/07/26 02:14:34;;;;;;;4.40;2.83;;;;;;;12.45;100.00;154503.13;4913646;29;20307;-73
2023/07/26 02:16:59;;;;;;;3.00;2.00;;;;;;;12.39;100.00;154488.84;4916926;29;20036;-72
2023/07/26 02:19:25;;;;;;;3.57;2.27;;;;;;;12.36;100.00;154481.09;4896416;29;20031;-72
2023/07/26 02:21:50;;;;;;;6.63;2.33;;;;;;;12.30;100.00;154465.53;4899796;29;20044;-72
2023/07/26 02:24:16;;;;;;;3.00;2.37;;;;;;;12.31;100.00;154468.13;4915396;29;20036;-73
2023/07/26 02:26:41;;;;;;;3.43;2.70;;;;;;;12.30;100.00;154465.53;4907054;29;20042;-73
2023/07/26 02:29:07;;;;;;;2.83;2.47;;;;;;;12.29;100.00;154461.66;4916833;29;20056;-73
2023/07/26 02:31:32;;;;;;;4.67;2.50;;;;;;;12.31;100.00;154468.13;4915234;29;20096;-73
2023/07/26 02:33:57;;;;;;;6.90;3.10;;;;;;;12.28;100.00;154459.06;4902395;29;20040;-71
2023/07/26 02:36:24;;;;;;;6.93;2.57;;;;;;;12.24;100.00;154448.69;4896221;29;20032;-71
2023/07/26 02:38:50;;;;;;;;;;;;;;;12.22;100.00;154443.50;4898046;29;20055;-71
2023/07/26 02:41:15;;;;;;;3.15;2.35;;;;;;;12.22;100.00;154444.78;4916390;29;20371;-71
2023/07/26 02:43:40;;;;;;;5.03;2.90;;;;;;;12.26;100.00;154453.84;4898170;29;20046;-71
2023/07/26 02:46:06;;;;;;;9.17;2.60;;;;;;;12.26;100.00;154455.16;4913704;29;20028;-71
2023/07/26 02:48:32;;;;;;;3.37;2.70;;;;;;;12.22;100.00;154443.50;4915051;29;20024;-70
2023/07/26 02:50:58;;;;;;;2.63;2.33;;;;;;;12.18;100.00;154433.13;4897801;29;20461;-69
2023/07/26 02:53:23;;;;;;;4.60;2.57;;;;;;;12.19;100.00;154435.72;4914928;29;20043;-70
2023/07/26 02:55:49;;;;;;;5.80;3.20;;;;;;;12.15;100.00;154426.66;4914779;29;20429;-69
2023/07/26 02:58:15;;;;;;;3.33;2.60;;;;;;;12.15;100.00;154426.66;4897955;29;20139;-69
2023/07/26 03:00:40;;;;;;;5.50;3.07;;;;;;;12.08;100.00;154407.22;4912301;29;20036;-70
2023/07/26 03:03:06;;;;;;;4.53;2.43;;;;;;;12.05;100.00;154400.72;4882128;29;20448;-70
2023/07/26 03:05:31;;;;;;;5.60;2.70;;;;;;;11.98;100.00;154382.59;4897457;29;20039;-70
2023/07/26 03:07:57;;;;;;;4.83;2.60;;;;;;;12.01;100.00;154389.06;4913860;29;20473;-70
2023/07/26 03:10:22;;;;;;;8.43;2.67;;;;;;;12.03;100.00;154395.56;4897301;29;20035;-69
2023/07/26 03:12:47;;;;;;;3.87;2.40;;;;;;;11.99;100.00;154385.19;4897932;29;20123;-69
2023/07/26 03:15:13;;;;;;;4.73;3.30;;;;;;;12.00;100.00;154386.50;4912185;29;20151;-69
2023/07/26 03:17:38;;;;;;;2.97;2.70;;;;;;;11.94;100.00;154370.91;4915026;29;20099;-69
2023/07/26 03:20:04;;;;;;;5.10;2.73;;;;;;;11.95;100.00;154373.53;4914628;29;20540;-69
2023/07/26 03:22:30;;;;;;;3.67;3.15;;;;;;;11.91;100.00;154363.16;4913731;29;20040;-70
2023/07/26 03:24:55;;;;;;;2.60;2.40;;;;;;;11.93;100.00;154369.63;4914283;29;20055;-70
2023/07/26 03:27:21;;;;;;;3.00;2.10;;;;;;;11.86;100.00;154351.47;4915109;29;20040;-69
2023/07/26 03:29:46;;;;;;;5.30;2.40;;;;;;;11.88;100.00;154356.66;4916021;29;20044;-69
2023/07/26 03:32:12;;;;;;;7.87;2.40;;;;;;;11.89;100.00;154357.94;4897601;29;20044;-70
2023/07/26 03:34:39;;;;;;;7.77;2.63;;;;;;;11.90;100.00;154360.56;4915258;29;20503;-69
2023/07/26 03:37:05;;;;;;;3.65;2.60;;;;;;;11.86;100.00;154351.47;4911488;29;20066;-69
2023/07/26 03:39:30;;;;;;;4.20;2.40;;;;;;;11.87;100.00;154352.78;4897168;29;20028;-69
2023/07/26 03:41:56;;;;;;;3.03;2.60;;;;;;;11.90;100.00;154360.56;4915177;29;20032;-69
2023/07/26 03:44:22;;;;;;;3.20;2.43;;;;;;;11.88;100.00;154356.66;4900126;29;20028;-70
2023/07/26 03:46:49;;;;;;;5.95;2.97;;;;;;;11.89;100.00;154357.94;4914529;29;20024;-69
2023/07/26 03:49:14;;;;;;;4.70;2.35;;;;;;;11.90;100.00;154360.56;4913098;29;20130;-69
2023/07/26 03:51:40;;;;;;;4.07;2.87;;;;;;;11.85;100.00;154347.63;4881648;29;20456;-69
2023/07/26 03:54:05;;;;;;;2.60;2.20;;;;;;;11.87;100.00;154354.09;4896014;29;20028;-69
2023/07/26 03:56:31;;;;;;;3.50;2.63;;;;;;;11.91;100.00;154363.16;4919451;29;20388;-69
2023/07/26 03:58:56;;;;;;;4.40;2.33;;;;;;;11.98;100.00;154381.28;4912576;29;20075;-69
2023/07/26 04:01:22;;;;;;;5.30;2.83;;;;;;;12.04;100.00;154396.81;4914036;29;20028;-69
2023/07/26 04:03:48;;;;;;;3.73;2.77;;;;;;;12.10;100.00;154413.69;4911671;29;20028;-70
2023/07/26 04:06:13;;;;;;;2.50;2.30;;;;;;;12.14;100.00;154424.06;4920118;29;20095;-69
2023/07/26 04:08:42;;;;;;;5.70;2.77;;;;;;;12.16;100.00;154427.97;4919252;29;20036;-70
2023/07/26 04:11:08;;;;;;;4.68;2.70;;;;;;;12.17;100.00;154430.56;4902167;29;20015;-69
2023/07/26 04:13:34;;;;;;;3.83;2.70;;;;;;;12.19;100.00;154437.03;4919399;29;20042;-68
2023/07/26 04:16:01;;;;;;;5.80;3.05;;;;;;;12.22;100.00;154443.50;4887727;29;20127;-69
2023/07/26 04:18:26;;;;;;;6.30;3.20;;;;;;;12.22;100.00;154443.50;4904233;29;20056;-69
2023/07/26 04:20:52;;;;;;;6.63;3.27;;;;;;;12.27;100.00;154457.75;4920399;29;20036;-69
2023/07/26 04:23:17;;;;;;;6.23;2.73;;;;;;;12.31;100.00;154468.13;4918655;29;20028;-70
2023/07/26 04:25:50;;;;;;;5.40;3.10;;;;;;;12.35;100.00;154477.19;4919014;29;20040;-70
2023/07/26 04:28:15;;;;;;;7.47;4.03;;;;;;;12.43;100.00;154499.22;4918897;29;20404;-69
2023/07/26 04:30:41;;;;;;;9.63;4.68;;;;;;;12.50;100.00;154516.09;4919700;29;20036;-69
2023/07/26 04:33:07;;;;;;;4.13;3.50;;;;;;;12.58;100.00;154536.81;4921131;29;20036;-69
2023/07/26 04:35:32;;;;;;;8.87;3.40;;;;;;;12.66;100.00;154557.59;4919079;29;20051;-70
2023/07/26 04:37:58;;;;;;;3.63;3.30;;;;;;;12.77;100.00;154587.44;4916676;29;20030;-70
2023/07/26 04:40:23;;;;;;;8.57;4.60;;;;;;;12.87;100.00;154612.06;4901759;29;20032;-69
2023/07/26 04:42:48;;;;;;;6.10;4.20;;;;;;;12.97;100.00;154639.31;4897263;29;20041;-69
2023/07/26 04:45:14;;;;;;;8.10;4.63;;;;;;;13.06;100.00;154661.34;4918605;29;20051;-70
2023/07/26 04:47:39;;;;;;;10.43;4.80;;;;;;;13.20;100.00;154697.69;4919365;29;20534;-70
2023/07/26 04:50:05;;;;;;;11.03;5.70;;;;;;;13.28;100.00;154719.75;4918656;29;20032;-70
2023/07/26 04:52:33;;;;;;;14.37;5.77;;;;;;;13.43;100.00;154757.34;4899248;29;20111;-70
2023/07/26 04:54:59;;;;;;;17.08;7.22;;;;;;;13.56;100.00;154791.13;4908270;29;20385;-70
2023/07/26 04:57:24;;;;;;;12.33;7.40;;;;;;;13.68;100.00;154823.56;4902853;29;20123;-70
2023/07/26 04:59:50;;;;;;;15.07;7.30;;;;;;;13.83;100.00;154862.47;4903567;29;20034;-70
2023/07/26 05:02:16;;;;;;;13.15;7.30;;;;;;;13.99;100.00;154902.72;4917154;29;20043;-70
2023/07/26 05:04:41;;;;;;;17.00;8.00;;;;;;;14.16;100.00;154948.19;4915101;29;20459;-70
2023/07/26 05:07:08;;;;;;;12.90;8.53;;;;;;;14.33;100.00;154991.03;4918673;29;20080;-70
2023/07/26 05:09:33;;;;;;;17.95;9.10;;;;;;;14.51;100.00;155039.09;4920082;29;20032;-70
2023/07/26 05:11:59;;;;;;;16.27;10.23;;;;;;;14.66;100.00;155076.75;4916419;29;20047;-70
2023/07/26 05:14:24;;;;;;;17.53;9.80;;;;;;;14.74;100.00;155097.53;4918459;29;20118;-70
2023/07/26 05:16:50;;;;;;;20.57;10.10;;;;;;;14.80;100.00;155113.13;4917866;29;20036;-70
2023/07/26 05:19:15;;;;;;;20.17;10.90;;;;;;;14.86;100.00;155130.03;4895552;29;20028;-71
2023/07/26 05:21:41;;;;;;;14.27;9.30;;;;;;;14.86;100.00;155130.03;4919387;29;20548;-69
2023/07/26 05:24:06;;;;;;;20.87;11.57;;;;;;;14.87;100.00;155132.63;4916953;29;20031;-70
2023/07/26 05:26:32;;;;;;;20.30;9.93;;;;;;;14.92;100.00;155144.28;4917730;29;20258;-70
2023/07/26 05:28:59;;;;;;;23.57;9.97;;;;;;;14.94;100.00;155149.50;4912584;29;20058;-70
2023/07/26 05:31:24;;;;;;;19.00;9.57;;;;;;;14.92;100.00;155144.28;4916835;29;20050;-71
2023/07/26 05:33:49;;;;;;;25.47;9.93;;;;;;;14.85;100.00;155126.13;4898794;29;20451;-72
2023/07/26 05:36:15;;;;;;;20.67;10.47;;;;;;;14.85;100.00;155127.44;4916026;29;20036;-71
2023/07/26 05:38:42;;;;;;;21.13;10.23;;;;;;;14.86;100.00;155128.69;4916445;29;20028;-72
2023/07/26 05:41:08;;;;;;;;;;;;;;;14.81;100.00;155117.03;4882326;29;20039;-72
2023/07/26 05:43:34;;;;;;;13.65;8.55;;;;;;;14.87;100.00;155131.28;4915163;29;19923;-72
2023/07/26 05:46:01;;;;;;;17.50;8.90;;;;;;;14.81;100.00;155115.72;4915739;29;20084;-73
2023/07/26 05:48:27;;;;;;;15.82;8.43;;;;;;;14.80;100.00;155113.13;4898502;29;20055;-72
2023/07/26 05:50:53;;;;;;;22.63;11.10;;;;;;;14.71;100.00;155091.06;4915015;29;20064;-73
2023/07/26 05:53:19;;;;;;;21.02;9.68;;;;;;;14.49;100.00;155033.91;4897801;29;20024;-73
2023/07/26 05:55:46;;;;;;;15.57;9.50;;;;;;;14.50;100.00;155035.19;4915830;29;20520;-72
2023/07/26 05:58:11;;;;;;;16.85;8.52;;;;;;;14.38;100.00;155005.34;4916425;29;20107;-73
2023/07/26 06:00:37;;;;;;;12.57;7.23;;;;;;;14.38;100.00;155004.03;4920642;29;20027;-72
2023/07/26 06:03:03;;;;;;;8.93;5.40;;;;;;;14.28;100.00;154979.38;4914089;29;20463;-72
2023/07/26 06:05:28;;;;;;;13.13;5.47;;;;;;;14.28;100.00;154978.06;4913269;29;20054;-72
2023/07/26 06:07:55;;;;;;;11.87;4.93;;;;;;;14.23;100.00;154966.38;4915886;29;20036;-72
2023/07/26 06:10:20;;;;;;;;;;;;;;;14.31;100.00;154985.88;4913822;29;20060;-72
2023/07/26 06:12:45;;;;;;;8.10;5.28;;;;;;;14.34;100.00;154994.94;4914894;29;19922;-72
2023/07/26 06:15:11;;;;;;;9.33;5.17;;;;;;;14.33;100.00;154992.38;4911411;29;20484;-73
2023/07/26 06:17:38;;;;;;;6.53;4.40;;;;;;;14.36;100.00;155000.13;4914524;29;20028;-72
2023/07/26 06:20:04;;;;;;;10.05;4.63;;;;;;;14.40;100.00;155009.25;4895668;29;20036;-72
2023/07/26 06:22:30;;;;;;;14.77;4.72;;;;;;;14.40;100.00;155010.53;4910972;29;20524;-72
2023/07/26 06:24:55;;;;;;;9.87;4.47;;;;;;;14.42;100.00;155015.69;4911191;29;20111;-72
2023/07/26 06:27:22;;;;;;;8.23;4.37;;;;;;;14.49;100.00;155033.91;4909361;29;20060;-73
2023/07/26 06:29:47;;;;;;;7.65;4.05;;;;;;;14.55;100.00;155048.16;4907968;29;20044;-72
2023/07/26 06:32:13;;;;;;;8.23;4.00;;;;;;;14.62;100.00;155066.38;4891913;29;20135;-73
2023/07/26 06:34:38;;;;;;;8.03;3.80;;;;;;;14.88;100.00;155133.94;4911265;29;20540;-72
2023/07/26 06:37:04;;;;;;;5.80;3.77;;;;;;;15.25;100.00;155230.03;4892694;29;20492;-72
2023/07/26 06:39:29;;;;;;;18.23;5.27;;;;;;;16.10;100.00;155452.38;4913368;29;20024;-72
2023/07/26 06:41:54;;;;;;;7.37;3.77;;;;;;;16.48;100.00;155549.97;4909679;29;20091;-72
2023/07/26 06:44:21;;;;;;;15.83;4.67;;;;;;;16.79;100.00;155631.91;4893853;29;20035;-73
2023/07/26 06:46:46;;;;;;;8.52;3.72;;;;;;;17.57;100.00;155833.66;4911038;29;20035;-72
2023/07/26 06:49:12;;;;;;;9.13;4.57;;;;;;;18.35;98.87;156038.13;4896873;29;20417;-72
2023/07/26 06:51:37;;;;;;;10.80;4.67;;;;;;;18.56;91.37;156092.84;4912184;29;20050;-72
2023/07/26 06:54:03;;;;;;;7.63;4.63;;;;;;;18.06;91.18;155961.25;4914067;29;20031;-73
2023/07/26 06:56:28;;;;;;;11.60;4.60;;;;;;;18.55;91.96;156090.25;4912942;29;20032;-72
2023/07/26 06:58:54;;;;;;;9.57;4.70;;;;;;;19.16;90.91;156247.91;4915533;29;20027;-73
2023/07/26 07:01:20;;;;;;;11.97;5.10;;;;;;;19.64;89.46;156373.09;4910313;29;20434;-72
2023/07/26 07:03:46;;;;;;;9.98;4.70;;;;;;;19.94;85.71;156451.31;4913847;29;20024;-72
2023/07/26 07:06:12;;;;;;;13.23;5.03;;;;;;;20.39;87.50;156568.78;4916618;29;20055;-72
2023/07/26 07:08:38;;;;;;;6.05;4.13;;;;;;;20.50;84.50;156597.47;4904637;29;20076;-71
2023/07/26 07:11:03;;;;;;;12.57;4.55;;;;;;;20.97;82.63;156721.47;4895188;29;20136;-71
2023/07/26 07:13:29;;;;;;;10.30;4.57;;;;;;;21.28;79.45;156802.41;4897345;29;20107;-70
2023/07/26 07:15:54;;;;;;;12.20;4.30;;;;;;;21.52;77.22;156865.09;4913304;29;20083;-71
2023/07/26 07:18:20;;;;;;;8.98;4.32;;;;;;;21.78;75.21;156931.72;4913309;29;20027;-71
2023/07/26 07:20:47;;;;;;;8.87;4.07;;;;;;;21.78;74.13;156933.00;4895847;29;20059;-71
2023/07/26 07:23:12;;;;;;;9.52;3.67;;;;;;;20.63;76.95;156632.69;4896527;29;20054;-71
2023/07/26 07:25:38;;;;;;;7.03;3.33;;;;;;;21.30;75.49;156806.31;4863676;29;20479;-72
2023/07/26 07:28:04;;;;;;;4.80;3.60;;;;;;;21.54;75.06;156868.97;4895485;29;20048;-71
2023/07/26 07:30:31;;;;;;;5.97;3.60;;;;;;;21.41;75.12;156835.03;4911996;29;20119;-71
2023/07/26 07:32:57;;;;;;;11.40;4.25;;;;;;;21.49;75.13;156855.91;4912923;29;20051;-73
2023/07/26 07:35:22;;;;;;;6.33;3.77;;;;;;;21.60;74.11;156885.94;4897793;29;20044;-72
2023/07/26 07:37:48;;;;;;;8.23;4.30;;;;;;;21.60;73.25;156885.94;4911154;29;20054;-72
2023/07/26 07:40:13;;;;;;;11.73;4.07;;;;;;;21.81;70.79;156940.84;4908893;29;20051;-72
2023/07/26 07:42:38;;;;;;;9.57;3.90;;;;;;;22.25;71.71;157054.50;4911711;29;20468;-72
2023/07/26 07:45:04;;;;;;;7.60;3.90;;;;;;;22.42;71.03;157098.91;4912642;29;20039;-72
2023/07/26 07:47:30;;;;;;;8.02;3.35;;;;;;;21.87;68.68;156955.25;4913783;29;20421;-72
2023/07/26 07:49:56;;;;;;;9.40;3.72;;;;;;;20.96;72.56;156717.59;4905720;29;20063;-72
2023/07/26 07:52:21;;;;;;;6.50;3.23;;;;;;;20.90;73.51;156701.88;4907362;29;20156;-72
2023/07/26 07:54:47;;;;;;;7.65;3.95;;;;;;;21.22;72.20;156786.75;4909506;29;20036;-72
2023/07/26 07:57:13;;;;;;;9.10;4.23;;;;;;;20.55;72.88;156611.78;4928641;29;20047;-72
2023/07/26 07:59:39;;;;;;;9.18;3.55;;;;;;;20.37;74.35;156563.53;4909253;29;20477;-72
2023/07/26 08:02:04;;;;;;;9.73;3.83;;;;;;;19.82;75.74;156420.03;4911596;29;20071;-71
2023/07/26 08:04:30;;;;;;;8.18;3.72;;;;;;;19.40;76.90;156311.81;4924913;29;20031;-72
2023/07/26 08:06:55;;;;;;;6.70;3.37;;;;;;;19.07;77.58;156225.75;4913167;29;20042;-72
2023/07/26 08:09:21;;;;;;;12.17;3.97;;;;;;;18.61;79.17;156104.53;4912705;29;20028;-71
2023/07/26 08:11:46;;;;;;;6.73;4.10;;;;;;;18.44;80.22;156060.25;4914308;29;20035;-71
2023/07/26 08:14:12;;;;;;;7.50;3.40;;;;;;;18.35;80.82;156038.13;4909055;29;20036;-72
2023/07/26 08:16:37;;;;;;;9.77;3.83;;;;;;;18.31;82.57;156026.38;4912841;29;20036;-71
2023/07/26 08:19:03;;;;;;;11.87;4.47;;;;;;;18.24;82.24;156008.16;4925370;29;20025;-71
2023/07/26 08:21:29;;;;;;;8.13;3.95;;;;;;;18.25;83.26;156010.75;4914393;29;20027;-72
2023/07/26 08:23:55;;;;;;;11.43;4.15;;;;;;;17.98;83.27;155940.44;4913153;29;20060;-71
2023/07/26 08:26:21;;;;;;;10.57;3.93;;;;;;;17.97;82.63;155939.09;4915364;29;20096;-71
2023/07/26 08:28:48;;;;;;;7.10;3.87;;;;;;;18.42;82.83;156056.34;4921471;29;20044;-71
2023/07/26 08:31:14;;;;;;;8.60;4.00;;;;;;;18.34;80.75;156035.53;4931342;29;20038;-71
2023/07/26 08:33:40;;;;;;;9.85;4.30;;;;;;;18.85;80.87;156167.09;4915500;29;20036;-70
2023/07/26 08:36:05;;;;;;;8.57;4.83;;;;;;;19.19;77.15;156255.72;4932044;29;20045;-71
2023/07/26 08:38:33;;;;;;;6.77;4.57;;;;;;;19.53;75.30;156344.44;4911431;29;20400;-71
2023/07/26 08:40:58;;;;;;;9.07;4.03;;;;;;;19.87;72.05;156433.06;4918459;29;20031;-71
2023/07/26 08:43:30;;;;;;;5.50;3.80;;;;;;;20.10;70.03;156494.41;4930722;29;20972;-71
2023/07/26 08:45:59;;;;;;;8.50;4.18;;;;;;;19.62;70.69;156367.84;4931373;29;20036;-71
2023/07/26 08:48:24;;;;;;;9.07;4.20;;;;;;;19.34;69.75;156294.88;4912384;29;20054;-71
2023/07/26 08:50:50;;;;;;;5.37;3.90;;;;;;;19.00;71.64;156207.47;4915344;29;20040;-71
2023/07/26 08:53:16;;;;;;;8.40;4.10;;;;;;;18.68;73.01;156122.81;4934903;29;20055;-72
2023/07/26 08:55:42;;;;;;;6.63;3.45;;;;;;;18.70;74.99;156129.34;4939318;29;20031;-71
2023/07/26 08:58:07;;;;;;;5.83;3.63;;;;;;;18.34;74.21;156035.53;4933027;29;20024;-71
2023/07/26 09:00:33;;;;;;;7.77;3.97;;;;;;;18.29;74.87;156021.13;4915197;29;20039;-71
2023/07/26 09:03:01;;;;;;;7.20;4.33;;;;;;;18.22;75.61;156002.91;4917731;29;20055;-71
2023/07/26 09:05:27;;;;;;;8.95;3.90;;;;;;;18.53;73.82;156085.06;4911332;29;20475;-71
2023/07/26 09:07:53;;;;;;;;;;;;;;;19.25;72.91;156272.72;4931887;29;20027;-71
2023/07/26 09:10:33;;;;;;;9.90;4.30;;;;;;;19.70;70.32;156388.75;4935222;29;20307;-70
2023/07/26 09:13:13;;;;;;;9.27;4.10;;;;;;;19.99;67.70;156464.34;4924540;29;20034;-71
2023/07/26 09:15:40;;;;;;;8.40;4.28;;;;;;;20.30;66.84;156546.59;4935166;29;20502;-71
2023/07/26 09:18:06;;;;;;;9.00;4.15;;;;;;;20.57;64.64;156615.72;4931693;29;20383;-71
2023/07/26 09:20:32;;;;;;;5.68;3.78;;;;;;;20.87;62.14;156694.03;4935040;29;20441;-71
2023/07/26 09:23:03;;;;;;;10.60;4.15;;;;;;;20.50;60.94;156597.47;4929328;29;20039;-71
2023/07/26 09:25:48;;;;;;;6.75;3.65;;;;;;;20.89;60.98;156699.28;4932558;29;20024;-71
2023/07/26 09:28:15;;;;;;;9.80;4.15;;;;;;;20.75;63.25;156662.72;4930377;29;20048;-71
2023/07/26 09:30:53;;;;;;;9.20;3.70;;;;;;;20.44;64.82;156583.09;4908612;29;20688;-71
2023/07/26 09:33:22;;;;;;;8.25;4.28;;;;;;;19.92;65.54;156446.13;4912120;29;20050;-71
2023/07/26 09:35:49;;;;;;;13.73;3.88;;;;;;;19.61;65.93;156365.25;4914365;29;20100;-71
2023/07/26 09:38:33;;;;;;;5.72;3.50;;;;;;;19.51;64.98;156339.19;4916391;29;20034;-70
2023/07/26 09:40:58;;;;;;;7.85;3.65;;;;;;;19.78;64.86;156409.59;4915184;29;20032;-71
2023/07/26 09:43:31;;;;;;;7.07;3.80;;;;;;;20.21;62.75;156521.78;4916150;29;20039;-70
2023/07/26 09:46:04;;;;;;;5.32;3.33;;;;;;;20.92;62.17;156707.13;4898917;29;20087;-71
2023/07/26 09:48:30;;;;;;;6.35;3.58;;;;;;;20.43;60.13;156579.22;4917680;29;20050;-70
2023/07/26 09:50:56;;;;;;;5.20;3.20;;;;;;;20.29;60.24;156542.69;4914706;29;20024;-72
2023/07/26 09:53:22;;;;;;;5.85;3.33;;;;;;;20.33;59.84;156554.41;4916321;29;20075;-71
2023/07/26 09:55:50;;;;;;;7.13;3.40;;;;;;;20.31;61.97;156549.19;4898358;29;20059;-72
2023/07/26 09:58:17;;;;;;;6.63;2.90;;;;;;;19.55;60.67;156349.63;4913877;29;20038;-72
2023/07/26 10:00:45;;;;;;;5.70;3.50;;;;;;;19.69;62.16;156387.41;4891868;29;20036;-71
2023/07/26 10:03:13;;;;;;;8.57;3.38;;;;;;;20.20;59.43;156519.19;4894660;29;20036;-71
2023/07/26 10:05:44;;;;;;;4.53;2.92;;;;;;;21.09;59.23;156752.81;4914216;29;20484;-72
2023/07/26 10:08:11;;;;;;;7.82;3.33;;;;;;;20.77;56.78;156669.25;4891275;29;20035;-71
2023/07/26 10:10:37;;;;;;;6.53;3.38;;;;;;;20.74;57.18;156660.06;4906036;29;20480;-72
2023/07/26 10:13:04;;;;;;;5.13;3.57;;;;;;;20.69;58.97;156647.03;4894917;29;20099;-71
2023/07/26 10:15:32;;;;;;;7.70;3.85;;;;;;;20.22;59.79;156524.44;4910957;29;20030;-72
2023/07/26 10:17:57;;;;;;;4.22;2.55;;;;;;;19.79;59.61;156412.22;4911154;29;20023;-71
2023/07/26 10:20:23;;;;;;;3.93;2.50;;;;;;;19.85;60.09;156429.16;4912545;29;20171;-72
2023/07/26 10:22:51;;;;;;;5.75;3.10;;;;;;;19.98;58.83;156463.06;4911643;29;20116;-71
2023/07/26 10:25:17;;;;;;;8.13;2.97;;;;;;;20.19;59.63;156517.91;4912770;29;20059;-71
2023/07/26 10:27:43;;;;;;;5.28;3.20;;;;;;;20.74;58.57;156660.06;4913298;29;20039;-71
2023/07/26 10:30:10;;;;;;;;;;;;;;;20.33;58.86;156554.41;4914319;29;20044;-71
2023/07/26 10:32:53;;;;;;;7.47;3.60;;;;;;;19.89;60.36;156439.59;4911781;29;19923;-71
2023/07/26 10:35:31;;;;;;;5.75;3.42;;;;;;;20.47;60.24;156589.63;4913908;29;20496;-70
2023/07/26 10:37:59;;;;;;;10.77;4.00;;;;;;;21.00;57.28;156729.31;4910393;29;20024;-71
2023/07/26 10:40:33;;;;;;;4.90;2.70;;;;;;;20.54;57.02;156609.19;4910926;29;20069;-71
2023/07/26 10:43:14;;;;;;;4.38;3.20;;;;;;;20.28;57.66;156541.34;4913081;29;20442;-71
2023/07/26 10:45:42;;;;;;;4.30;2.88;;;;;;;21.37;55.51;156824.59;4907783;29;20031;-71
2023/07/26 10:48:13;;;;;;;3.88;2.70;;;;;;;21.25;55.64;156793.25;4914375;29;20024;-72
2023/07/26 10:50:39;;;;;;;6.85;3.28;;;;;;;20.78;56.64;156670.53;4897355;29;20039;-71
2023/07/26 10:53:52;;;;;;;6.72;3.13;;;;;;;21.23;56.38;156789.34;4912844;29;20114;-71
2023/07/26 10:56:31;;;;;;;5.25;3.38;;;;;;;22.07;54.93;157007.44;4909882;29;20039;-71
2023/07/26 10:59:23;;;;;;;6.88;3.85;;;;;;;21.65;55.43;156897.69;4910670;29;20046;-70
2023/07/26 11:01:50;;;;;;;12.70;4.43;;;;;;;21.02;55.54;156733.25;4892883;29;20039;-72
2023/07/26 11:04:21;;;;;;;7.43;3.53;;;;;;;21.32;54.60;156812.84;4913131;29;20032;-71
2023/07/26 11:07:04;;;;;;;6.15;3.65;;;;;;;21.99;53.55;156987.84;4911914;29;20489;-70
2023/07/26 11:09:31;;;;;;;5.38;3.28;;;;;;;21.03;53.06;156735.84;4913284;29;20020;-72
2023/07/26 11:12:02;;;;;;;10.88;3.53;;;;;;;21.41;53.30;156835.03;4911227;29;20020;-71
2023/07/26 11:14:32;;;;;;;8.25;2.78;;;;;;;21.77;51.71;156929.13;4911396;29;20048;-71
2023/07/26 11:17:07;;;;;;;4.30;2.80;;;;;;;22.08;50.88;157011.38;4894649;29;20028;-71
2023/07/26 11:19:44;;;;;;;5.00;2.90;;;;;;;22.25;50.55;157055.78;4896498;29;20496;-69
2023/07/26 11:22:09;;;;;;;6.63;2.65;;;;;;;22.22;49.86;157047.97;4893429;29;20078;-71